sensor_id;sensor_type;location;lat;lon;timestamp;P1;durP1;ratioP1;P2;durP2;ratioP2
3249;SDS011;1637;42.020;23.992;2023-02-14T00:01:50;57.53;;;22.50;;
3249;SDS011;1637;42.020;23.992;2023-02-14T00:04:19;62.87;;;21.87;;
3249;SDS011;1637;42.020;23.992;2023-02-14T00:06:48;52.63;;;20.30;;
3249;SDS011;1637;42.020;23.992;2023-02-14T00:09:15;58.47;;;21.10;;
3249;SDS011;1637;42.020;23.992;2023-02-14T00:11:44;49.47;;;18.00;;
3249;SDS011;1637;42.020;23.992;2023-02-14T00:14:11;31.83;;;16.50;;
3249;SDS011;1637;42.020;23.992;2023-02-14T00:16:56;46.53;;;18.80;;
3249;SDS011;1637;42.020;23.992;2023-02-14T00:19:23;40.53;;;15.80;;
3249;SDS011;1637;42.020;23.992;2023-02-14T00:21:52;41.20;;;17.17;;
3249;SDS011;1637;42.020;23.992;2023-02-14T00:24:20;34.50;;;13.90;;
3249;SDS011;1637;42.020;23.992;2023-02-14T00:26:48;38.43;;;13.80;;
3249;SDS011;1637;42.020;23.992;2023-02-14T00:29:16;35.80;;;16.93;;
3249;SDS011;1637;42.020;23.992;2023-02-14T00:31:44;29.70;;;12.07;;
3249;SDS011;1637;42.020;23.992;2023-02-14T00:34:12;39.63;;;15.13;;
3249;SDS011;1637;42.020;23.992;2023-02-14T00:36:40;34.13;;;15.10;;
3249;SDS011;1637;42.020;23.992;2023-02-14T00:39:09;33.80;;;14.13;;
3249;SDS011;1637;42.020;23.992;2023-02-14T00:41:39;30.47;;;14.30;;
3249;SDS011;1637;42.020;23.992;2023-02-14T00:44:07;30.90;;;13.50;;
3249;SDS011;1637;42.020;23.992;2023-02-14T00:46:35;42.30;;;17.00;;
3249;SDS011;1637;42.020;23.992;2023-02-14T00:49:02;42.07;;;15.50;;
3249;SDS011;1637;42.020;23.992;2023-02-14T00:51:29;39.30;;;17.13;;
3249;SDS011;1637;42.020;23.992;2023-02-14T00:53:56;39.33;;;17.63;;
3249;SDS011;1637;42.020;23.992;2023-02-14T00:56:25;34.53;;;15.83;;
3249;SDS011;1637;42.020;23.992;2023-02-14T00:58:51;39.97;;;14.93;;
3249;SDS011;1637;42.020;23.992;2023-02-14T01:01:18;28.30;;;12.27;;
3249;SDS011;1637;42.020;23.992;2023-02-14T01:03:46;30.60;;;13.70;;
3249;SDS011;1637;42.020;23.992;2023-02-14T01:06:13;39.43;;;15.37;;
3249;SDS011;1637;42.020;23.992;2023-02-14T01:08:40;27.87;;;12.00;;
3249;SDS011;1637;42.020;23.992;2023-02-14T01:11:07;26.63;;;11.50;;
3249;SDS011;1637;42.020;23.992;2023-02-14T01:13:37;32.33;;;13.23;;
3249;SDS011;1637;42.020;23.992;2023-02-14T01:16:05;30.33;;;13.53;;
3249;SDS011;1637;42.020;23.992;2023-02-14T01:18:34;29.90;;;12.30;;
3249;SDS011;1637;42.020;23.992;2023-02-14T01:21:11;32.33;;;14.07;;
3249;SDS011;1637;42.020;23.992;2023-02-14T01:23:40;31.70;;;14.80;;
3249;SDS011;1637;42.020;23.992;2023-02-14T01:26:08;49.73;;;20.70;;
3249;SDS011;1637;42.020;23.992;2023-02-14T01:28:37;46.70;;;18.57;;
3249;SDS011;1637;42.020;23.992;2023-02-14T01:31:05;42.27;;;18.40;;
3249;SDS011;1637;42.020;23.992;2023-02-14T01:33:33;28.40;;;13.77;;
3249;SDS011;1637;42.020;23.992;2023-02-14T01:36:00;33.87;;;17.33;;
3249;SDS011;1637;42.020;23.992;2023-02-14T01:38:27;31.57;;;15.00;;
3249;SDS011;1637;42.020;23.992;2023-02-14T01:40:54;44.30;;;17.67;;
3249;SDS011;1637;42.020;23.992;2023-02-14T01:43:20;54.43;;;20.17;;
3249;SDS011;1637;42.020;23.992;2023-02-14T01:45:49;62.47;;;22.70;;
3249;SDS011;1637;42.020;23.992;2023-02-14T01:48:16;71.73;;;26.67;;
3249;SDS011;1637;42.020;23.992;2023-02-14T01:50:46;62.93;;;27.90;;
3249;SDS011;1637;42.020;23.992;2023-02-14T01:53:15;81.27;;;35.67;;
3249;SDS011;1637;42.020;23.992;2023-02-14T01:55:49;51.83;;;22.00;;
3249;SDS011;1637;42.020;23.992;2023-02-14T01:58:23;43.60;;;15.53;;
3249;SDS011;1637;42.020;23.992;2023-02-14T02:00:53;120.40;;;46.53;;
3249;SDS011;1637;42.020;23.992;2023-02-14T02:03:25;92.07;;;40.83;;
3249;SDS011;1637;42.020;23.992;2023-02-14T02:05:56;51.63;;;22.47;;
3249;SDS011;1637;42.020;23.992;2023-02-14T02:08:28;52.20;;;21.83;;
3249;SDS011;1637;42.020;23.992;2023-02-14T02:10:54;60.17;;;25.70;;
3249;SDS011;1637;42.020;23.992;2023-02-14T02:13:21;47.97;;;21.60;;
3249;SDS011;1637;42.020;23.992;2023-02-14T02:15:51;62.40;;;25.57;;
3249;SDS011;1637;42.020;23.992;2023-02-14T02:18:30;74.20;;;29.30;;
3249;SDS011;1637;42.020;23.992;2023-02-14T02:24:17;76.80;;;30.77;;
3249;SDS011;1637;42.020;23.992;2023-02-14T02:30:09;62.03;;;25.60;;
3249;SDS011;1637;42.020;23.992;2023-02-14T02:36:26;81.27;;;29.50;;
3249;SDS011;1637;42.020;23.992;2023-02-14T02:39:17;65.07;;;26.10;;
3249;SDS011;1637;42.020;23.992;2023-02-14T02:41:57;57.30;;;24.17;;
3249;SDS011;1637;42.020;23.992;2023-02-14T02:44:32;61.57;;;23.93;;
3249;SDS011;1637;42.020;23.992;2023-02-14T02:47:10;44.70;;;18.97;;
3249;SDS011;1637;42.020;23.992;2023-02-14T02:49:44;49.97;;;17.80;;
3249;SDS011;1637;42.020;23.992;2023-02-14T02:52:38;68.90;;;26.07;;
3249;SDS011;1637;42.020;23.992;2023-02-14T02:55:29;66.37;;;24.57;;
3249;SDS011;1637;42.020;23.992;2023-02-14T02:58:17;48.00;;;19.60;;
3249;SDS011;1637;42.020;23.992;2023-02-14T03:00:46;25.93;;;13.17;;
3249;SDS011;1637;42.020;23.992;2023-02-14T03:03:15;38.97;;;16.70;;
3249;SDS011;1637;42.020;23.992;2023-02-14T03:06:01;54.43;;;24.23;;
3249;SDS011;1637;42.020;23.992;2023-02-14T03:08:30;62.00;;;24.63;;
3249;SDS011;1637;42.020;23.992;2023-02-14T03:10:57;53.43;;;23.00;;
3249;SDS011;1637;42.020;23.992;2023-02-14T03:13:41;45.13;;;20.47;;
3249;SDS011;1637;42.020;23.992;2023-02-14T03:16:23;44.33;;;19.47;;
3249;SDS011;1637;42.020;23.992;2023-02-14T03:19:03;69.20;;;24.77;;
3249;SDS011;1637;42.020;23.992;2023-02-14T03:22:03;52.97;;;21.47;;
3249;SDS011;1637;42.020;23.992;2023-02-14T03:24:41;77.00;;;27.40;;
3249;SDS011;1637;42.020;23.992;2023-02-14T03:27:14;70.33;;;27.70;;
3249;SDS011;1637;42.020;23.992;2023-02-14T03:29:49;70.00;;;26.20;;
3249;SDS011;1637;42.020;23.992;2023-02-14T03:32:26;63.93;;;25.77;;
3249;SDS011;1637;42.020;23.992;2023-02-14T03:34:59;43.97;;;17.77;;
3249;SDS011;1637;42.020;23.992;2023-02-14T03:37:37;60.80;;;23.27;;
3249;SDS011;1637;42.020;23.992;2023-02-14T03:40:12;59.03;;;19.23;;
3249;SDS011;1637;42.020;23.992;2023-02-14T03:42:46;74.73;;;25.53;;
3249;SDS011;1637;42.020;23.992;2023-02-14T03:45:19;64.97;;;26.10;;
3249;SDS011;1637;42.020;23.992;2023-02-14T03:47:52;55.37;;;17.77;;
3249;SDS011;1637;42.020;23.992;2023-02-14T03:50:23;63.20;;;23.83;;
3249;SDS011;1637;42.020;23.992;2023-02-14T03:52:53;49.90;;;23.00;;
3249;SDS011;1637;42.020;23.992;2023-02-14T03:55:25;41.73;;;18.73;;
3249;SDS011;1637;42.020;23.992;2023-02-14T03:57:58;57.50;;;22.97;;
3249;SDS011;1637;42.020;23.992;2023-02-14T04:00:32;71.77;;;24.80;;
3249;SDS011;1637;42.020;23.992;2023-02-14T04:03:05;59.40;;;24.03;;
3249;SDS011;1637;42.020;23.992;2023-02-14T04:05:36;60.80;;;25.40;;
3249;SDS011;1637;42.020;23.992;2023-02-14T04:08:08;58.37;;;24.00;;
3249;SDS011;1637;42.020;23.992;2023-02-14T04:10:36;52.77;;;24.07;;
3249;SDS011;1637;42.020;23.992;2023-02-14T04:13:06;47.40;;;21.53;;
3249;SDS011;1637;42.020;23.992;2023-02-14T04:15:32;61.57;;;24.63;;
3249;SDS011;1637;42.020;23.992;2023-02-14T04:17:59;70.23;;;26.43;;
3249;SDS011;1637;42.020;23.992;2023-02-14T04:20:43;61.00;;;24.33;;
3249;SDS011;1637;42.020;23.992;2023-02-14T04:23:10;54.73;;;25.17;;
3249;SDS011;1637;42.020;23.992;2023-02-14T04:25:38;53.53;;;24.97;;
3249;SDS011;1637;42.020;23.992;2023-02-14T04:28:07;58.90;;;22.70;;
3249;SDS011;1637;42.020;23.992;2023-02-14T04:30:34;62.57;;;24.50;;
3249;SDS011;1637;42.020;23.992;2023-02-14T04:33:01;53.43;;;21.10;;
3249;SDS011;1637;42.020;23.992;2023-02-14T04:35:28;73.00;;;26.07;;
3249;SDS011;1637;42.020;23.992;2023-02-14T04:37:55;70.83;;;27.10;;
3249;SDS011;1637;42.020;23.992;2023-02-14T04:40:22;71.20;;;32.00;;
3249;SDS011;1637;42.020;23.992;2023-02-14T04:42:50;78.73;;;30.97;;
3249;SDS011;1637;42.020;23.992;2023-02-14T04:45:17;66.23;;;29.30;;
3249;SDS011;1637;42.020;23.992;2023-02-14T04:47:44;113.10;;;40.17;;
3249;SDS011;1637;42.020;23.992;2023-02-14T04:50:11;45.93;;;17.23;;
3249;SDS011;1637;42.020;23.992;2023-02-14T04:52:38;79.33;;;25.70;;
3249;SDS011;1637;42.020;23.992;2023-02-14T04:55:05;71.37;;;28.07;;
3249;SDS011;1637;42.020;23.992;2023-02-14T04:57:33;70.73;;;31.30;;
3249;SDS011;1637;42.020;23.992;2023-02-14T05:00:02;76.70;;;29.50;;
3249;SDS011;1637;42.020;23.992;2023-02-14T05:02:29;119.23;;;39.37;;
3249;SDS011;1637;42.020;23.992;2023-02-14T05:04:56;132.37;;;39.90;;
3249;SDS011;1637;42.020;23.992;2023-02-14T05:07:22;123.53;;;41.50;;
3249;SDS011;1637;42.020;23.992;2023-02-14T05:09:49;94.07;;;34.80;;
3249;SDS011;1637;42.020;23.992;2023-02-14T05:12:16;109.57;;;37.90;;
3249;SDS011;1637;42.020;23.992;2023-02-14T05:14:43;81.37;;;28.40;;
3249;SDS011;1637;42.020;23.992;2023-02-14T05:17:11;69.27;;;28.03;;
3249;SDS011;1637;42.020;23.992;2023-02-14T05:19:37;69.80;;;25.90;;
3249;SDS011;1637;42.020;23.992;2023-02-14T05:22:04;83.87;;;30.90;;
3249;SDS011;1637;42.020;23.992;2023-02-14T05:24:31;103.13;;;35.00;;
3249;SDS011;1637;42.020;23.992;2023-02-14T05:26:58;71.13;;;28.67;;
3249;SDS011;1637;42.020;23.992;2023-02-14T05:29:25;65.33;;;27.23;;
3249;SDS011;1637;42.020;23.992;2023-02-14T05:31:52;115.70;;;32.80;;
3249;SDS011;1637;42.020;23.992;2023-02-14T05:34:20;79.57;;;27.50;;
3249;SDS011;1637;42.020;23.992;2023-02-14T05:36:46;87.93;;;31.60;;
3249;SDS011;1637;42.020;23.992;2023-02-14T05:39:13;76.50;;;32.87;;
3249;SDS011;1637;42.020;23.992;2023-02-14T05:41:40;71.17;;;27.40;;
3249;SDS011;1637;42.020;23.992;2023-02-14T05:44:07;72.53;;;31.90;;
3249;SDS011;1637;42.020;23.992;2023-02-14T05:46:34;57.53;;;26.67;;
3249;SDS011;1637;42.020;23.992;2023-02-14T05:49:00;58.30;;;24.97;;
3249;SDS011;1637;42.020;23.992;2023-02-14T05:51:28;66.30;;;25.57;;
3249;SDS011;1637;42.020;23.992;2023-02-14T05:53:55;53.27;;;23.90;;
3249;SDS011;1637;42.020;23.992;2023-02-14T05:56:24;40.90;;;17.70;;
3249;SDS011;1637;42.020;23.992;2023-02-14T05:58:50;74.33;;;27.37;;
3249;SDS011;1637;42.020;23.992;2023-02-14T06:01:17;35.50;;;15.07;;
3249;SDS011;1637;42.020;23.992;2023-02-14T06:03:44;65.70;;;23.47;;
3249;SDS011;1637;42.020;23.992;2023-02-14T06:06:11;55.40;;;21.53;;
3249;SDS011;1637;42.020;23.992;2023-02-14T06:08:39;81.00;;;31.20;;
3249;SDS011;1637;42.020;23.992;2023-02-14T06:11:06;66.43;;;27.37;;
3249;SDS011;1637;42.020;23.992;2023-02-14T06:13:32;70.03;;;26.80;;
3249;SDS011;1637;42.020;23.992;2023-02-14T06:15:59;75.23;;;24.00;;
3249;SDS011;1637;42.020;23.992;2023-02-14T06:18:28;77.03;;;32.17;;
3249;SDS011;1637;42.020;23.992;2023-02-14T06:20:55;59.97;;;24.50;;
3249;SDS011;1637;42.020;23.992;2023-02-14T06:23:22;57.67;;;25.23;;
3249;SDS011;1637;42.020;23.992;2023-02-14T06:25:50;65.97;;;28.43;;
3249;SDS011;1637;42.020;23.992;2023-02-14T06:28:17;48.63;;;21.23;;
3249;SDS011;1637;42.020;23.992;2023-02-14T06:30:44;65.83;;;29.87;;
3249;SDS011;1637;42.020;23.992;2023-02-14T06:33:12;71.20;;;37.03;;
3249;SDS011;1637;42.020;23.992;2023-02-14T06:35:38;94.50;;;42.83;;
3249;SDS011;1637;42.020;23.992;2023-02-14T06:38:05;113.17;;;47.43;;
3249;SDS011;1637;42.020;23.992;2023-02-14T06:40:32;114.57;;;42.37;;
3249;SDS011;1637;42.020;23.992;2023-02-14T06:43:00;115.50;;;43.53;;
3249;SDS011;1637;42.020;23.992;2023-02-14T06:45:27;93.63;;;41.80;;
3249;SDS011;1637;42.020;23.992;2023-02-14T06:47:54;110.03;;;42.73;;
3249;SDS011;1637;42.020;23.992;2023-02-14T06:50:20;78.13;;;33.30;;
3249;SDS011;1637;42.020;23.992;2023-02-14T06:52:47;122.90;;;65.03;;
3249;SDS011;1637;42.020;23.992;2023-02-14T06:55:15;119.50;;;61.40;;
3249;SDS011;1637;42.020;23.992;2023-02-14T06:57:42;83.43;;;33.67;;
3249;SDS011;1637;42.020;23.992;2023-02-14T07:00:11;66.97;;;31.00;;
3249;SDS011;1637;42.020;23.992;2023-02-14T07:02:39;89.60;;;43.37;;
3249;SDS011;1637;42.020;23.992;2023-02-14T07:05:06;75.03;;;37.70;;
3249;SDS011;1637;42.020;23.992;2023-02-14T07:07:33;77.30;;;39.20;;
3249;SDS011;1637;42.020;23.992;2023-02-14T07:10:00;132.50;;;58.60;;
3249;SDS011;1637;42.020;23.992;2023-02-14T07:12:27;174.43;;;70.50;;
3249;SDS011;1637;42.020;23.992;2023-02-14T07:14:53;136.93;;;63.13;;
3249;SDS011;1637;42.020;23.992;2023-02-14T07:17:22;114.67;;;52.63;;
3249;SDS011;1637;42.020;23.992;2023-02-14T07:19:48;129.27;;;59.37;;
3249;SDS011;1637;42.020;23.992;2023-02-14T07:22:15;173.47;;;75.53;;
3249;SDS011;1637;42.020;23.992;2023-02-14T07:24:42;151.60;;;66.90;;
3249;SDS011;1637;42.020;23.992;2023-02-14T07:27:09;124.67;;;58.37;;
3249;SDS011;1637;42.020;23.992;2023-02-14T07:29:35;92.37;;;41.07;;
3249;SDS011;1637;42.020;23.992;2023-02-14T07:32:02;100.67;;;47.93;;
3249;SDS011;1637;42.020;23.992;2023-02-14T07:34:31;70.93;;;34.43;;
3249;SDS011;1637;42.020;23.992;2023-02-14T07:36:58;65.00;;;33.33;;
3249;SDS011;1637;42.020;23.992;2023-02-14T07:39:25;89.03;;;38.93;;
3249;SDS011;1637;42.020;23.992;2023-02-14T07:41:52;70.27;;;35.17;;
3249;SDS011;1637;42.020;23.992;2023-02-14T07:44:19;60.70;;;28.70;;
3249;SDS011;1637;42.020;23.992;2023-02-14T07:46:46;64.73;;;35.80;;
3249;SDS011;1637;42.020;23.992;2023-02-14T07:49:13;49.73;;;24.83;;
3249;SDS011;1637;42.020;23.992;2023-02-14T07:51:41;79.30;;;34.80;;
3249;SDS011;1637;42.020;23.992;2023-02-14T07:54:08;102.10;;;44.07;;
3249;SDS011;1637;42.020;23.992;2023-02-14T07:56:35;199.23;;;111.47;;
3249;SDS011;1637;42.020;23.992;2023-02-14T07:59:02;203.97;;;113.87;;
3249;SDS011;1637;42.020;23.992;2023-02-14T08:01:28;163.73;;;82.57;;
3249;SDS011;1637;42.020;23.992;2023-02-14T08:03:55;150.03;;;69.83;;
3249;SDS011;1637;42.020;23.992;2023-02-14T08:06:22;72.73;;;33.50;;
3249;SDS011;1637;42.020;23.992;2023-02-14T08:08:51;64.57;;;33.07;;
3249;SDS011;1637;42.020;23.992;2023-02-14T08:11:18;63.93;;;34.23;;
3249;SDS011;1637;42.020;23.992;2023-02-14T08:13:58;71.33;;;37.33;;
3249;SDS011;1637;42.020;23.992;2023-02-14T08:16:25;71.63;;;35.13;;
3249;SDS011;1637;42.020;23.992;2023-02-14T08:18:52;63.60;;;38.27;;
3249;SDS011;1637;42.020;23.992;2023-02-14T08:21:19;68.57;;;38.13;;
3249;SDS011;1637;42.020;23.992;2023-02-14T08:23:45;60.87;;;36.53;;
3249;SDS011;1637;42.020;23.992;2023-02-14T08:26:14;79.03;;;36.50;;
3249;SDS011;1637;42.020;23.992;2023-02-14T08:28:41;64.67;;;32.80;;
3249;SDS011;1637;42.020;23.992;2023-02-14T08:31:08;35.90;;;17.87;;
3249;SDS011;1637;42.020;23.992;2023-02-14T08:33:35;64.10;;;29.37;;
3249;SDS011;1637;42.020;23.992;2023-02-14T08:36:02;50.13;;;23.00;;
3249;SDS011;1637;42.020;23.992;2023-02-14T08:38:30;38.73;;;18.00;;
3249;SDS011;1637;42.020;23.992;2023-02-14T08:40:58;107.77;;;25.17;;
3249;SDS011;1637;42.020;23.992;2023-02-14T08:43:27;26.23;;;15.90;;
3249;SDS011;1637;42.020;23.992;2023-02-14T08:45:54;65.70;;;36.23;;
3249;SDS011;1637;42.020;23.992;2023-02-14T08:48:21;41.63;;;22.93;;
3249;SDS011;1637;42.020;23.992;2023-02-14T08:50:49;78.33;;;41.13;;
3249;SDS011;1637;42.020;23.992;2023-02-14T08:53:16;82.63;;;42.37;;
3249;SDS011;1637;42.020;23.992;2023-02-14T08:55:43;86.67;;;39.20;;
3249;SDS011;1637;42.020;23.992;2023-02-14T08:58:10;45.03;;;24.57;;
3249;SDS011;1637;42.020;23.992;2023-02-14T09:00:38;48.53;;;20.77;;
3249;SDS011;1637;42.020;23.992;2023-02-14T09:03:05;25.20;;;12.70;;
3249;SDS011;1637;42.020;23.992;2023-02-14T09:05:32;53.73;;;20.60;;
3249;SDS011;1637;42.020;23.992;2023-02-14T09:08:00;36.73;;;19.60;;
3249;SDS011;1637;42.020;23.992;2023-02-14T09:10:27;29.23;;;14.00;;
3249;SDS011;1637;42.020;23.992;2023-02-14T09:12:54;92.87;;;56.03;;
3249;SDS011;1637;42.020;23.992;2023-02-14T09:15:21;29.37;;;11.33;;
3249;SDS011;1637;42.020;23.992;2023-02-14T09:17:49;25.07;;;10.93;;
3249;SDS011;1637;42.020;23.992;2023-02-14T09:20:16;24.30;;;11.83;;
3249;SDS011;1637;42.020;23.992;2023-02-14T09:22:43;22.60;;;13.63;;
3249;SDS011;1637;42.020;23.992;2023-02-14T09:25:10;24.90;;;11.87;;
3249;SDS011;1637;42.020;23.992;2023-02-14T09:27:37;28.67;;;16.07;;
3249;SDS011;1637;42.020;23.992;2023-02-14T09:30:04;28.30;;;13.97;;
3249;SDS011;1637;42.020;23.992;2023-02-14T09:32:32;40.50;;;11.00;;
3249;SDS011;1637;42.020;23.992;2023-02-14T09:35:00;19.03;;;11.20;;
3249;SDS011;1637;42.020;23.992;2023-02-14T09:37:44;43.37;;;27.90;;
3249;SDS011;1637;42.020;23.992;2023-02-14T09:40:28;23.30;;;10.20;;
3249;SDS011;1637;42.020;23.992;2023-02-14T09:42:58;16.13;;;8.17;;
3249;SDS011;1637;42.020;23.992;2023-02-14T09:45:32;15.20;;;9.03;;
3249;SDS011;1637;42.020;23.992;2023-02-14T09:48:00;14.20;;;8.20;;
3249;SDS011;1637;42.020;23.992;2023-02-14T09:50:35;17.83;;;9.50;;
3249;SDS011;1637;42.020;23.992;2023-02-14T09:53:12;31.60;;;17.97;;
3249;SDS011;1637;42.020;23.992;2023-02-14T09:55:48;23.33;;;8.80;;
3249;SDS011;1637;42.020;23.992;2023-02-14T09:58:21;16.50;;;10.50;;
3249;SDS011;1637;42.020;23.992;2023-02-14T10:00:52;80.90;;;44.67;;
3249;SDS011;1637;42.020;23.992;2023-02-14T10:03:36;20.07;;;13.00;;
3249;SDS011;1637;42.020;23.992;2023-02-14T10:06:19;11.43;;;7.70;;
3249;SDS011;1637;42.020;23.992;2023-02-14T10:08:57;14.10;;;8.60;;
3249;SDS011;1637;42.020;23.992;2023-02-14T10:11:34;45.20;;;12.73;;
3249;SDS011;1637;42.020;23.992;2023-02-14T10:14:03;16.27;;;9.60;;
3249;SDS011;1637;42.020;23.992;2023-02-14T10:16:36;25.47;;;12.90;;
3249;SDS011;1637;42.020;23.992;2023-02-14T10:19:12;14.70;;;7.80;;
3249;SDS011;1637;42.020;23.992;2023-02-14T10:21:47;19.70;;;12.43;;
3249;SDS011;1637;42.020;23.992;2023-02-14T10:24:20;22.40;;;12.20;;
3249;SDS011;1637;42.020;23.992;2023-02-14T10:26:50;27.03;;;13.60;;
3249;SDS011;1637;42.020;23.992;2023-02-14T10:29:22;19.43;;;10.47;;
3249;SDS011;1637;42.020;23.992;2023-02-14T10:31:49;23.57;;;12.53;;
3249;SDS011;1637;42.020;23.992;2023-02-14T10:34:23;16.93;;;9.30;;
3249;SDS011;1637;42.020;23.992;2023-02-14T10:37:00;20.47;;;14.07;;
3249;SDS011;1637;42.020;23.992;2023-02-14T10:40:00;16.10;;;9.90;;
3249;SDS011;1637;42.020;23.992;2023-02-14T10:42:40;11.47;;;7.63;;
3249;SDS011;1637;42.020;23.992;2023-02-14T10:45:17;13.50;;;6.57;;
3249;SDS011;1637;42.020;23.992;2023-02-14T10:47:53;16.50;;;9.43;;
3249;SDS011;1637;42.020;23.992;2023-02-14T10:50:26;16.83;;;10.27;;
3249;SDS011;1637;42.020;23.992;2023-02-14T10:53:05;12.53;;;8.20;;
3249;SDS011;1637;42.020;23.992;2023-02-14T10:55:43;11.30;;;8.50;;
3249;SDS011;1637;42.020;23.992;2023-02-14T10:58:15;19.13;;;10.80;;
3249;SDS011;1637;42.020;23.992;2023-02-14T11:00:49;17.77;;;9.77;;
3249;SDS011;1637;42.020;23.992;2023-02-14T11:03:21;43.67;;;14.90;;
3249;SDS011;1637;42.020;23.992;2023-02-14T11:05:49;18.87;;;9.10;;
3249;SDS011;1637;42.020;23.992;2023-02-14T11:08:21;20.97;;;12.60;;
3249;SDS011;1637;42.020;23.992;2023-02-14T11:10:51;37.13;;;15.50;;
3249;SDS011;1637;42.020;23.992;2023-02-14T11:13:30;17.57;;;10.13;;
3249;SDS011;1637;42.020;23.992;2023-02-14T11:16:01;23.50;;;13.17;;
3249;SDS011;1637;42.020;23.992;2023-02-14T11:18:30;30.50;;;14.30;;
3249;SDS011;1637;42.020;23.992;2023-02-14T11:21:07;35.40;;;20.60;;
3249;SDS011;1637;42.020;23.992;2023-02-14T11:23:38;33.53;;;13.73;;
3249;SDS011;1637;42.020;23.992;2023-02-14T11:26:15;29.23;;;13.50;;
3249;SDS011;1637;42.020;23.992;2023-02-14T11:28:50;27.20;;;16.60;;
3249;SDS011;1637;42.020;23.992;2023-02-14T11:31:24;18.47;;;8.97;;
3249;SDS011;1637;42.020;23.992;2023-02-14T11:33:53;33.97;;;14.30;;
3249;SDS011;1637;42.020;23.992;2023-02-14T11:36:20;15.73;;;9.53;;
3249;SDS011;1637;42.020;23.992;2023-02-14T11:38:54;14.87;;;9.27;;
3249;SDS011;1637;42.020;23.992;2023-02-14T11:41:27;34.87;;;11.03;;
3249;SDS011;1637;42.020;23.992;2023-02-14T11:44:13;13.07;;;7.40;;
3249;SDS011;1637;42.020;23.992;2023-02-14T11:46:46;18.73;;;7.80;;
3249;SDS011;1637;42.020;23.992;2023-02-14T11:49:21;22.23;;;12.80;;
3249;SDS011;1637;42.020;23.992;2023-02-14T11:51:52;18.20;;;7.10;;
3249;SDS011;1637;42.020;23.992;2023-02-14T11:54:29;12.13;;;5.90;;
3249;SDS011;1637;42.020;23.992;2023-02-14T11:57:01;18.23;;;8.60;;
3249;SDS011;1637;42.020;23.992;2023-02-14T11:59:32;11.37;;;6.97;;
3249;SDS011;1637;42.020;23.992;2023-02-14T12:02:03;45.23;;;12.23;;
3249;SDS011;1637;42.020;23.992;2023-02-14T12:04:47;11.53;;;6.63;;
3249;SDS011;1637;42.020;23.992;2023-02-14T12:07:18;10.57;;;6.93;;
3249;SDS011;1637;42.020;23.992;2023-02-14T12:10:03;19.50;;;9.10;;
3249;SDS011;1637;42.020;23.992;2023-02-14T12:12:47;16.20;;;9.70;;
3249;SDS011;1637;42.020;23.992;2023-02-14T12:15:31;13.13;;;8.50;;
3249;SDS011;1637;42.020;23.992;2023-02-14T12:21:11;12.03;;;6.13;;
3249;SDS011;1637;42.020;23.992;2023-02-14T12:23:49;12.27;;;7.23;;
3249;SDS011;1637;42.020;23.992;2023-02-14T12:26:27;36.33;;;7.03;;
3249;SDS011;1637;42.020;23.992;2023-02-14T12:28:59;13.73;;;7.77;;
3249;SDS011;1637;42.020;23.992;2023-02-14T12:31:31;14.70;;;6.93;;
3249;SDS011;1637;42.020;23.992;2023-02-14T12:33:57;12.40;;;7.40;;
3249;SDS011;1637;42.020;23.992;2023-02-14T12:36:32;20.93;;;10.10;;
3249;SDS011;1637;42.020;23.992;2023-02-14T12:39:13;33.00;;;15.63;;
3249;SDS011;1637;42.020;23.992;2023-02-14T12:41:54;15.40;;;8.13;;
3249;SDS011;1637;42.020;23.992;2023-02-14T12:44:36;25.63;;;11.90;;
3249;SDS011;1637;42.020;23.992;2023-02-14T12:47:13;32.13;;;12.63;;
3249;SDS011;1637;42.020;23.992;2023-02-14T12:49:50;37.67;;;18.30;;
3249;SDS011;1637;42.020;23.992;2023-02-14T12:52:53;33.07;;;14.53;;
3249;SDS011;1637;42.020;23.992;2023-02-14T12:55:32;43.77;;;15.07;;
3249;SDS011;1637;42.020;23.992;2023-02-14T12:58:13;32.03;;;13.90;;
3249;SDS011;1637;42.020;23.992;2023-02-14T13:00:53;30.97;;;15.33;;
3249;SDS011;1637;42.020;23.992;2023-02-14T13:06:28;21.37;;;11.53;;
3249;SDS011;1637;42.020;23.992;2023-02-14T13:09:03;17.40;;;9.83;;
3249;SDS011;1637;42.020;23.992;2023-02-14T13:11:46;24.80;;;11.53;;
3249;SDS011;1637;42.020;23.992;2023-02-14T13:14:29;21.70;;;8.40;;
3249;SDS011;1637;42.020;23.992;2023-02-14T13:17:06;47.70;;;19.00;;
3249;SDS011;1637;42.020;23.992;2023-02-14T13:19:42;32.53;;;15.40;;
3249;SDS011;1637;42.020;23.992;2023-02-14T13:22:19;17.50;;;9.87;;
3249;SDS011;1637;42.020;23.992;2023-02-14T13:24:49;28.83;;;11.07;;
3249;SDS011;1637;42.020;23.992;2023-02-14T13:27:17;26.80;;;12.20;;
3249;SDS011;1637;42.020;23.992;2023-02-14T13:29:49;19.93;;;9.07;;
3249;SDS011;1637;42.020;23.992;2023-02-14T13:32:19;20.80;;;9.70;;
3249;SDS011;1637;42.020;23.992;2023-02-14T13:34:49;22.27;;;11.97;;
3249;SDS011;1637;42.020;23.992;2023-02-14T13:37:17;27.30;;;12.30;;
3249;SDS011;1637;42.020;23.992;2023-02-14T13:39:46;21.00;;;8.70;;
3249;SDS011;1637;42.020;23.992;2023-02-14T13:48:21;28.83;;;14.40;;
3249;SDS011;1637;42.020;23.992;2023-02-14T13:50:50;15.37;;;9.07;;
3249;SDS011;1637;42.020;23.992;2023-02-14T13:53:30;27.20;;;13.63;;
3249;SDS011;1637;42.020;23.992;2023-02-14T13:55:59;36.70;;;18.57;;
3249;SDS011;1637;42.020;23.992;2023-02-14T13:58:26;34.17;;;14.93;;
3249;SDS011;1637;42.020;23.992;2023-02-14T14:00:55;37.73;;;19.40;;
3249;SDS011;1637;42.020;23.992;2023-02-14T14:06:20;33.63;;;18.13;;
3249;SDS011;1637;42.020;23.992;2023-02-14T14:08:48;35.13;;;22.90;;
3249;SDS011;1637;42.020;23.992;2023-02-14T14:17:20;26.40;;;12.97;;
3249;SDS011;1637;42.020;23.992;2023-02-14T14:19:50;8.87;;;5.93;;
3249;SDS011;1637;42.020;23.992;2023-02-14T14:22:17;21.90;;;12.37;;
3249;SDS011;1637;42.020;23.992;2023-02-14T14:24:57;18.20;;;8.60;;
3249;SDS011;1637;42.020;23.992;2023-02-14T14:27:28;24.60;;;11.90;;
3249;SDS011;1637;42.020;23.992;2023-02-14T14:29:58;28.33;;;13.03;;
3249;SDS011;1637;42.020;23.992;2023-02-14T14:32:28;16.40;;;8.90;;
3249;SDS011;1637;42.020;23.992;2023-02-14T14:34:57;28.03;;;17.53;;
3249;SDS011;1637;42.020;23.992;2023-02-14T14:37:27;13.90;;;8.87;;
3249;SDS011;1637;42.020;23.992;2023-02-14T14:39:56;16.70;;;11.60;;
3249;SDS011;1637;42.020;23.992;2023-02-14T14:42:25;14.00;;;7.43;;
3249;SDS011;1637;42.020;23.992;2023-02-14T14:44:55;15.70;;;9.40;;
3249;SDS011;1637;42.020;23.992;2023-02-14T14:47:26;8.00;;;5.60;;
3249;SDS011;1637;42.020;23.992;2023-02-14T14:49:59;10.43;;;4.97;;
3249;SDS011;1637;42.020;23.992;2023-02-14T14:52:32;11.47;;;6.20;;
3249;SDS011;1637;42.020;23.992;2023-02-14T14:55:02;18.77;;;10.30;;
3249;SDS011;1637;42.020;23.992;2023-02-14T14:57:31;20.43;;;10.27;;
3249;SDS011;1637;42.020;23.992;2023-02-14T15:00:04;39.30;;;18.53;;
3249;SDS011;1637;42.020;23.992;2023-02-14T15:02:58;31.70;;;15.43;;
3249;SDS011;1637;42.020;23.992;2023-02-14T15:05:31;12.63;;;5.90;;
3249;SDS011;1637;42.020;23.992;2023-02-14T15:10:48;15.83;;;9.50;;
3249;SDS011;1637;42.020;23.992;2023-02-14T15:13:19;9.07;;;4.83;;
3249;SDS011;1637;42.020;23.992;2023-02-14T15:16:15;11.57;;;6.70;;
3249;SDS011;1637;42.020;23.992;2023-02-14T15:18:44;103.23;;;49.50;;
3249;SDS011;1637;42.020;23.992;2023-02-14T15:21:12;25.83;;;14.03;;
3249;SDS011;1637;42.020;23.992;2023-02-14T15:23:39;18.53;;;6.90;;
3249;SDS011;1637;42.020;23.992;2023-02-14T15:26:08;8.93;;;4.87;;
3249;SDS011;1637;42.020;23.992;2023-02-14T15:28:42;24.70;;;11.80;;
3249;SDS011;1637;42.020;23.992;2023-02-14T15:31:09;21.90;;;12.43;;
3249;SDS011;1637;42.020;23.992;2023-02-14T15:33:36;14.60;;;7.00;;